• Join FlightAware (Why Join?)
  • Login
  • US Flag 
03:30AM EDT


 

Airport Tracker/Info


-or-


 

Live Flight TrackerFlight Track Log ✈ TRS886 ✈ 06-May-2013 ✈ KMCO - KSTL

Flight Track Log - Related Links

Times and Time Zones

All times are in EDT time to prevent confusion due to time zone crossing. See the TRS886 flight status page for this flight to view local times or setup timezone preferences in your user account.

Time Position Orientation Groundspeed Altitude Reporting Facility
EDT Latitude Longitude Course Direction KTS MPH feet Rate Location/Type
02:09PM 28.4000 -81.3000 229° Southwest 173 199 800  Level Orlando TRACON
02:11PM 28.4167 -81.4682 270° West  Level FlightAware Approximate
02:12PM 28.2833 -81.4500 270° West 227 261 7,400  Level Orlando TRACON
02:13PM 28.3000 -81.5500 281° West 257 296 10,000 1,500 Climbing Orlando TRACON
02:16PM 28.3225 -81.7725 277° West 336 387 13,000 1,500 Climbing Jacksonville Center
02:18PM 28.4167 -82.2280 270° West  Level FlightAware Approximate
02:18PM 28.3492 -81.9917 278° West 357 411 16,800  Level Jacksonville Center
02:19PM 28.3625 -82.1069 278° West 357 411 18,300 1,620 Climbing Jacksonville Center
02:20PM 28.3756 -82.2225 277° West 369 425 20,100 1,980 Climbing Jacksonville Center
02:21PM 28.3931 -82.3569 278° West 386 444 22,300 1,560 Climbing Jacksonville Center
02:23PM 28.4790 -82.5207 328° Northwest  Level FlightAware Approximate
02:23PM 28.4625 -82.5833 328° Northwest 386 444 24,900  Level Jacksonville Center
02:24PM 28.5567 -82.6633 323° Northwest 390 449 26,100 1,020 Climbing Jacksonville Center
02:25PM 28.6528 -82.7458 323° Northwest 407 468 27,000 1,260 Climbing Jacksonville Center
02:27PM 28.8166 -82.8542 327° Northwest  Level Estimated
02:28PM 28.9219 -82.9708 327° Northwest 416 479 31,200  Level Jacksonville Center
02:30PM 29.1056 -83.1256 324° Northwest 416 479 32,000 240 Climbing Jacksonville Center
02:31PM 29.1972 -83.2042 323° Northwest 416 479 32,000 -60 Level Jacksonville Center
02:32PM 29.2869 -83.2783 324° Northwest 416 479 31,900 -60 Descending Jacksonville Center
02:33PM 29.3783 -83.3572 323° Northwest 416 479 31,900  Level Jacksonville Center
02:34PM 29.4678 -83.4364 322° Northwest 416 479 31,900  Level Jacksonville Center
02:35PM 29.5572 -83.5108 324° Northwest 411 473 31,900  Level Jacksonville Center
02:36PM 29.6508 -83.5808 327° Northwest 411 473 31,900  Level Jacksonville Center
02:37PM 29.7464 -83.6486 328° Northwest 401 461 31,900  Level Jacksonville Center
02:38PM 29.8422 -83.7164 328° Northwest 401 461 31,900  Level Jacksonville Center
02:40PM 30.0043 -83.8300 329° Northwest  Level FlightAware Approximate
02:44PM 30.4108 -84.1233 327° Northwest 401 461 32,000  Level Jacksonville Center
02:45PM 30.5022 -84.1922 327° Northwest 396 456 31,900  Descending Jacksonville Center
02:47PM 30.6625 -84.3100 328° Northwest  Level FlightAware Approximate
02:47PM 30.6423 -84.2903 328° Northwest  Level FlightAware Approximate
02:48PM 30.7328 -84.3574 327° Northwest  Level FlightAware Approximate
02:48PM 30.7961 -84.4089 328° Northwest 396 456 32,000  Level Jacksonville Center
02:49PM 30.8232 -84.4247 327° Northwest  Level FlightAware Approximate
02:50PM 30.9742 -84.5378 328° Northwest 396 456 32,000  Level Jacksonville Center
02:52PM 31.2000 -84.7064 327° Northwest 400 460 32,000  Level Atlanta Center
02:53PM 31.2958 -84.7775 328° Northwest 400 460 32,000  Level Atlanta Center
02:54PM 31.3892 -84.8489 327° Northwest 400 460 32,000  Level Atlanta Center
02:56PM 31.5781 -84.9894 328° Northwest 400 460 32,000  Level Atlanta Center
02:58PM 31.7647 -85.1308 327° Northwest 405 466 32,000  Level Atlanta Center
02:59PM 31.8519 -85.1906 330° Northwest 399 459 32,000  Level Atlanta Center
03:00PM 31.9450 -85.2625 327° Northwest 399 459 32,000  Level Atlanta Center
03:02PM 32.0740 -85.3602 327° Northwest  Level FlightAware Approximate
03:04PM 32.3383 -85.5581 327° Northwest 411 473 32,000  Level Atlanta Center
03:05PM 32.4314 -85.6311 326° Northwest 411 473 32,000  Level Atlanta Center
03:06PM 32.5286 -85.7042 328° Northwest 411 473 32,000  Level Atlanta Center
03:08PM 32.6613 -85.7953 330° Northwest  Level Estimated
03:08PM 32.7206 -85.8511 330° Northwest 411 473 32,000  Level Atlanta Center
03:09PM 32.7027 -85.8416 327° Northwest  Level FlightAware Approximate
03:09PM 32.8156 -85.9272 326° Northwest 411 473 32,000  Level Atlanta Center
03:10PM 32.9122 -86.0058 326° Northwest 411 473 32,000  Level Atlanta Center
03:11PM 33.0094 -86.0725 330° Northwest 411 473 32,000  Level Atlanta Center
03:14PM 33.2263 -86.2443 326° Northwest  Level FlightAware Approximate
03:14PM 33.2956 -86.2978 326° Northwest 411 473 32,000  Level Atlanta Center
03:15PM 33.3922 -86.3750 326° Northwest 411 473 32,000  Level Atlanta Center
03:16PM 33.4764 -86.4444 325° Northwest 411 473 32,000  Level Atlanta Center
03:17PM 33.5753 -86.5197 328° Northwest 411 473 32,000  Level Atlanta Center
03:19PM 33.7024 -86.6226 326° Northwest  Level FlightAware Approximate
03:20PM 33.8708 -86.7558 327° Northwest 416 479 32,000  Level Atlanta Center
03:22PM 34.0038 -86.8477 330° Northwest  Level Estimated
03:24PM 34.2372 -87.0533 330° Northwest 450 518 32,000  Level Memphis Center
03:25PM 34.3372 -87.1325 327° Northwest 426 490 32,000  Level Memphis Center
03:26PM 34.3229 -87.1281 327° Northwest  Level FlightAware Approximate
03:26PM 34.4353 -87.2119 326° Northwest 422 486 32,000  Level Memphis Center
03:28PM 34.5944 -87.3363 326° Northwest  Level FlightAware Approximate
03:29PM 34.6525 -87.3005 330° Northwest  Level Estimated
03:29PM 34.7269 -87.4511 326° Northwest 440 506 34,000  Level Memphis Center
03:31PM 34.8925 -87.5880 326° Northwest  Level FlightAware Approximate
03:33PM 35.1328 -87.7850 324° Northwest 429 494 34,000  Level Memphis Center
03:34PM 35.2306 -87.8633 327° Northwest 429 494 34,000  Level Memphis Center
03:35PM 35.3281 -87.9419 327° Northwest 429 494 34,000  Level Memphis Center
03:36PM 35.4256 -88.0256 325° Northwest 429 494 34,000  Level Memphis Center
03:37PM 35.5189 -88.1072 325° Northwest 424 488 34,000  Level Memphis Center
03:38PM 35.5188 -88.0925 324° Northwest  Level FlightAware Approximate
03:39PM 35.7092 -88.2581 327° Northwest 413 475 34,000  Level Memphis Center
03:41PM 35.8994 -88.4197 325° Northwest 413 475 34,000  Level Memphis Center
03:43PM 36.0624 -88.5633 325° Northwest  Level FlightAware Approximate
03:45PM 36.2878 -88.7528 326° Northwest 423 487 34,000  Level Memphis Center
03:46PM 36.3847 -88.8361 325° Northwest 428 493 34,000  Level Memphis Center
03:47PM 36.4753 -88.9144 325° Northwest 437 503 34,000  Level Memphis Center
03:48PM 36.5722 -88.9953 326° Northwest 432 497 34,000 -540 Level Memphis Center
03:50PM 36.7356 -89.1365 325° Northwest  Level FlightAware Approximate
03:50PM 36.6778 -89.0963 326° Northwest  Level FlightAware Approximate
03:52PM 37.0025 -89.3733 337° Northwest 412 474 31,100  Level Kansas City Center
03:53PM 37.1003 -89.4583 325° Northwest 422 486 29,600 -2,040 Descending Kansas City Center
03:54PM 37.1956 -89.5442 324° Northwest 423 487 26,900 -900 Descending Kansas City Center
03:56PM 37.3046 -89.6106 338° Northwest  Level FlightAware Approximate
03:57PM 37.3599 -89.6387 337° Northwest  Level FlightAware Approximate
03:57PM 37.5053 -89.7250 338° Northwest 411 473 26,000  Level Kansas City Center
03:58PM 37.4576 -89.6920 337° Northwest  Level FlightAware Approximate
03:58PM 37.6167 -89.7853 337° Northwest 413 475 25,200  Level Kansas City Center
03:59PM 37.7181 -89.8411 336° Northwest 402 463 22,800 -2,520 Descending Kansas City Center
04:02PM 37.9040 -89.9353 338° Northwest  Level FlightAware Approximate
04:02PM 38.0167 -90.0000 338° Northwest 348 400 15,300  Level Gateway (St. Louis) TRACON
04:03PM 37.9157 -89.9412 338° Northwest  Level FlightAware Approximate
04:04PM 38.1148 -90.0648 322° Northwest  Level FlightAware Approximate
04:06PM 38.3333 -90.0833 311° West 276 318 9,200  Level Gateway (St. Louis) TRACON
04:08PM 38.4311 -90.1017 352° North 275 316 8,300 -1,080 Descending Kansas City Center
04:09PM 38.5083 -90.1111 355° North 271 312 6,700 -1,620 Descending Kansas City Center
04:10PM 38.5797 -90.1183 355° North 265 305 5,000 -1,500 Descending Kansas City Center
04:11PM 38.6892 -90.4505 311° West  Level FlightAware Approximate
04:11PM 38.6408 -90.1556 335° Northwest 253 291 3,700  Level Kansas City Center
04:12PM 38.7393 -90.5505 311° West  Level FlightAware Approximate
04:12PM 38.6850 -90.2303 307° West 233 268 2,500  Level Kansas City Center
04:14PM 38.7339 -90.3286 303° West 165 190 800 -660 Descending Kansas City Center
04:15PM 38.7592 -90.3800 302° West 157 181 600 -240 Descending Kansas City Center